createdAt,value
2023-05-18T00:01:57.201Z,59.69
2023-05-18T00:04:27.073Z,59.67
2023-05-18T00:07:01.195Z,59.95
2023-05-18T00:09:32.138Z,59.58
2023-05-18T00:12:03.090Z,59.71
2023-05-18T00:14:33.144Z,60.16
2023-05-18T00:17:03.055Z,59.92
2023-05-18T00:19:33.228Z,60.68
2023-05-18T00:22:03.555Z,61.33
2023-05-18T00:24:35.044Z,61.19
2023-05-18T00:27:05.005Z,61.49
2023-05-18T00:29:34.743Z,61.17
2023-05-18T00:32:06.717Z,61.42
2023-05-18T00:34:36.725Z,60.64
2023-05-18T00:37:06.293Z,60.97
2023-05-18T00:39:36.212Z,61.21
2023-05-18T00:42:07.709Z,61.15
2023-05-18T00:44:37.547Z,61.78
2023-05-18T00:47:07.488Z,61.78
2023-05-18T00:49:37.645Z,61.43
2023-05-18T00:52:08.713Z,61.25
2023-05-18T00:54:38.778Z,61.35
2023-05-18T00:57:08.956Z,61.74
2023-05-18T00:59:39.930Z,61.57
2023-05-18T01:02:12.082Z,61.85
2023-05-18T01:04:42.937Z,61.72
2023-05-18T01:07:14.598Z,62.75
2023-05-18T01:09:44.294Z,62.61
2023-05-18T01:12:22.136Z,62.42
2023-05-18T01:14:57.311Z,62.56
2023-05-18T01:17:47.352Z,62.39
2023-05-18T01:20:45.943Z,62.32
2023-05-18T01:23:28.904Z,62.27
2023-05-18T01:26:01.964Z,62.76
2023-05-18T01:28:33.955Z,62.44
2023-05-18T01:31:04.466Z,62.93
2023-05-18T01:33:34.952Z,62.62
2023-05-18T01:36:06.681Z,62.67
2023-05-18T01:38:37.013Z,63.12
2023-05-18T01:41:24.464Z,63.16
2023-05-18T01:44:17.431Z,63.45
2023-05-18T01:47:08.428Z,63.12
2023-05-18T01:49:41.978Z,63.74
2023-05-18T01:52:14.923Z,63.39
2023-05-18T01:54:47.572Z,63.33
2023-05-18T01:57:19.448Z,63.46
2023-05-18T01:59:49.679Z,63.73
2023-05-18T02:02:19.642Z,63.24
2023-05-18T02:04:49.598Z,63.57
2023-05-18T02:07:19.909Z,63.60
2023-05-18T02:09:49.869Z,63.40
2023-05-18T02:12:19.511Z,63.49
2023-05-18T02:14:49.747Z,63.17
2023-05-18T02:17:19.315Z,63.61
2023-05-18T02:19:49.264Z,63.52
2023-05-18T02:22:19.501Z,63.23
2023-05-18T02:24:49.782Z,63.93
2023-05-18T02:27:19.695Z,63.19
2023-05-18T02:29:51.706Z,63.58
2023-05-18T02:32:21.536Z,63.62
2023-05-18T02:34:54.456Z,63.57
2023-05-18T02:37:24.577Z,63.93
2023-05-18T02:39:54.504Z,64.48
2023-05-18T02:42:24.325Z,64.42
2023-05-18T02:44:54.176Z,63.83
2023-05-18T02:47:24.183Z,63.84
2023-05-18T02:49:54.070Z,63.91
2023-05-18T02:52:24.149Z,63.77
2023-05-18T02:54:54.756Z,63.85
2023-05-18T02:57:26.465Z,64.11
2023-05-18T03:00:13.024Z,63.96
2023-05-18T03:02:44.440Z,63.77
2023-05-18T03:05:15.764Z,63.47
2023-05-18T03:07:47.238Z,63.44
2023-05-18T03:10:17.597Z,63.60
2023-05-18T03:12:48.562Z,63.77
2023-05-18T03:15:18.176Z,64.17
2023-05-18T03:17:49.571Z,64.39
2023-05-18T03:23:08.960Z,64.03
2023-05-18T03:25:38.942Z,64.84
2023-05-18T03:28:11.412Z,65.02
2023-05-18T03:30:41.621Z,65.06
2023-05-18T03:33:12.292Z,64.72
2023-05-18T03:35:42.416Z,64.27
2023-05-18T03:38:12.295Z,64.65
2023-05-18T03:40:44.041Z,64.44
2023-05-18T03:43:13.895Z,64.34
2023-05-18T03:45:43.998Z,64.40
2023-05-18T03:48:14.441Z,64.88
2023-05-18T03:50:44.739Z,64.75
2023-05-18T03:53:14.614Z,64.57
2023-05-18T03:55:44.515Z,64.90
2023-05-18T03:58:14.312Z,65.17
2023-05-18T04:00:43.887Z,65.00
2023-05-18T04:03:15.169Z,65.38
2023-05-18T04:05:45.968Z,65.22
2023-05-18T04:08:15.911Z,65.38
2023-05-18T04:10:46.657Z,65.22
2023-05-18T04:13:16.264Z,65.96
2023-05-18T04:15:46.114Z,65.44
2023-05-18T04:18:16.050Z,65.37
2023-05-18T04:20:46.161Z,65.74
2023-05-18T04:23:16.820Z,65.75
2023-05-18T04:25:46.738Z,65.75
2023-05-18T04:28:16.633Z,65.20
2023-05-18T04:30:47.530Z,65.20
2023-05-18T04:33:17.379Z,65.57
2023-05-18T04:35:47.309Z,65.81
2023-05-18T04:38:17.404Z,65.79
2023-05-18T04:40:47.300Z,65.79
2023-05-18T04:43:18.464Z,65.85
2023-05-18T04:45:50.043Z,65.74
2023-05-18T04:48:20.084Z,65.50
2023-05-18T04:50:51.940Z,65.74
2023-05-18T04:53:23.031Z,65.25
2023-05-18T04:55:54.480Z,65.31
2023-05-18T04:58:24.097Z,64.55
2023-05-18T05:00:54.631Z,64.83
2023-05-18T05:03:24.662Z,64.22
2023-05-18T05:05:54.623Z,65.59
2023-05-18T05:08:24.282Z,64.69
2023-05-18T05:10:54.445Z,64.89
2023-05-18T05:13:24.658Z,64.66
2023-05-18T05:15:54.796Z,64.66
2023-05-18T05:18:24.439Z,64.55
2023-05-18T05:20:55.153Z,64.47
2023-05-18T05:23:24.991Z,64.20
2023-05-18T05:25:56.564Z,63.44
2023-05-18T05:28:26.409Z,62.96
2023-05-18T05:30:56.537Z,62.70
2023-05-18T05:33:26.279Z,62.80
2023-05-18T05:35:56.517Z,62.11
2023-05-18T05:38:26.682Z,62.77
2023-05-18T05:40:56.502Z,62.75
2023-05-18T05:43:26.616Z,62.49
2023-05-18T05:45:56.450Z,61.80
2023-05-18T05:48:26.958Z,61.79
2023-05-18T05:50:57.121Z,61.53
2023-05-18T05:53:27.042Z,61.45
2023-05-18T05:55:56.958Z,60.96
2023-05-18T05:58:26.605Z,60.61
2023-05-18T06:00:58.238Z,59.08
2023-05-18T06:03:29.260Z,59.08
2023-05-18T06:06:00.894Z,58.67
2023-05-18T06:08:31.495Z,59.15
2023-05-18T06:11:01.698Z,58.16
2023-05-18T06:13:32.115Z,58.60
2023-05-18T06:16:01.709Z,57.43
2023-05-18T06:18:32.008Z,57.90
2023-05-18T06:21:03.606Z,57.26
2023-05-18T06:23:34.753Z,56.64
2023-05-18T06:26:08.251Z,56.21
2023-05-18T06:28:55.747Z,56.77
2023-05-18T06:31:30.675Z,55.34
2023-05-18T06:34:11.505Z,54.34
2023-05-18T06:36:41.560Z,53.56
2023-05-18T06:39:11.174Z,53.25
2023-05-18T06:41:41.767Z,53.69
2023-05-18T06:44:11.972Z,53.69
2023-05-18T06:46:43.858Z,53.25
2023-05-18T06:49:15.527Z,52.97
2023-05-18T06:51:46.449Z,52.68
2023-05-18T06:54:16.330Z,53.31
2023-05-18T06:56:47.227Z,53.19
2023-05-18T06:59:18.056Z,52.28
2023-05-18T07:01:47.963Z,51.82
2023-05-18T07:04:19.348Z,50.60
2023-05-18T07:06:49.577Z,50.88
2023-05-18T07:09:19.767Z,50.49
2023-05-18T07:11:49.685Z,49.48
2023-05-18T07:14:19.515Z,49.88
2023-05-18T07:16:49.106Z,50.65
2023-05-18T07:19:19.085Z,50.92
2023-05-18T07:21:49.032Z,50.28
2023-05-18T07:24:19.268Z,50.61
2023-05-18T07:26:49.188Z,49.83
2023-05-18T07:29:19.042Z,49.65
2023-05-18T07:31:48.948Z,50.70
2023-05-18T07:34:18.631Z,49.54
2023-05-18T07:36:48.195Z,49.96
2023-05-18T07:39:19.890Z,49.38
2023-05-18T07:41:50.046Z,50.42
2023-05-18T07:44:19.882Z,50.42
2023-05-18T07:46:49.802Z,50.14
2023-05-18T07:49:19.866Z,48.77
2023-05-18T07:51:50.485Z,48.77
2023-05-18T07:54:20.385Z,49.50
2023-05-18T07:56:50.388Z,49.13
2023-05-18T07:59:20.981Z,48.68
2023-05-18T08:01:50.867Z,48.08
2023-05-18T08:04:21.127Z,48.04
2023-05-18T08:06:52.599Z,47.28
2023-05-18T08:09:22.858Z,45.91
2023-05-18T08:11:52.543Z,46.19
2023-05-18T08:14:22.194Z,46.12
2023-05-18T08:16:52.102Z,46.47
2023-05-18T08:19:22.036Z,46.06
2023-05-18T08:21:52.222Z,45.58
2023-05-18T08:24:22.066Z,43.96
2023-05-18T08:26:52.519Z,45.17
2023-05-18T08:29:22.421Z,44.44
2023-05-18T08:31:52.646Z,44.51
2023-05-18T08:34:22.556Z,45.78
2023-05-18T08:36:52.784Z,44.58
2023-05-18T08:39:23.015Z,44.75
2023-05-18T08:41:58.678Z,44.98
2023-05-18T08:44:37.227Z,44.48
2023-05-18T08:47:10.683Z,43.68
2023-05-18T08:49:43.159Z,43.25
2023-05-18T08:52:16.027Z,43.29
2023-05-18T08:54:47.219Z,43.70
2023-05-18T08:57:18.982Z,44.57
2023-05-18T08:59:50.018Z,44.57
2023-05-18T09:02:20.209Z,43.76
2023-05-18T09:04:50.582Z,44.06
2023-05-18T09:07:22.543Z,44.68
2023-05-18T09:09:53.636Z,44.19
2023-05-18T09:12:24.705Z,43.72
2023-05-18T09:14:55.395Z,42.92
2023-05-18T09:17:25.265Z,42.92
2023-05-18T09:19:55.169Z,43.43
2023-05-18T09:22:24.856Z,43.28
2023-05-18T09:24:55.261Z,43.43
2023-05-18T09:27:26.302Z,43.15
2023-05-18T09:29:57.679Z,43.95
2023-05-18T09:32:27.884Z,43.18
2023-05-18T09:34:59.497Z,41.44
2023-05-18T09:37:29.313Z,42.08
2023-05-18T09:40:01.302Z,42.94
2023-05-18T09:42:42.395Z,44.08
2023-05-18T09:45:19.881Z,43.37
2023-05-18T09:47:51.622Z,42.64
2023-05-18T09:50:25.544Z,42.70
2023-05-18T09:52:57.426Z,42.52
2023-05-18T09:55:27.289Z,41.78
2023-05-18T09:57:58.051Z,41.31
2023-05-18T10:00:27.903Z,41.58
2023-05-18T10:02:57.797Z,41.24
2023-05-18T10:05:32.576Z,40.63
2023-05-18T10:08:02.161Z,40.25
2023-05-18T10:10:32.060Z,40.86
2023-05-18T10:13:03.036Z,40.81
2023-05-18T10:15:33.557Z,40.47
2023-05-18T10:18:07.638Z,40.47
2023-05-18T10:20:37.952Z,39.93
2023-05-18T10:23:08.849Z,40.05
2023-05-18T10:25:39.420Z,38.86
2023-05-18T10:28:12.513Z,40.37
2023-05-18T10:30:43.537Z,38.46
2023-05-18T10:33:27.685Z,39.18
2023-05-18T10:35:49.338Z,40.06
2023-05-18T10:38:22.054Z,39.47
2023-05-18T10:40:54.252Z,40.40
2023-05-18T10:43:27.074Z,39.38
2023-05-18T10:45:59.321Z,39.69
2023-05-18T10:48:30.535Z,39.36
2023-05-18T10:51:00.613Z,39.01
2023-05-18T10:53:30.554Z,38.94
2023-05-18T10:56:01.558Z,37.43
2023-05-18T10:58:32.926Z,38.03
2023-05-18T11:01:05.247Z,37.46
2023-05-18T11:03:35.148Z,38.21
2023-05-18T11:06:11.674Z,37.09
2023-05-18T11:08:44.495Z,36.45
2023-05-18T11:11:16.483Z,38.12
2023-05-18T11:13:51.250Z,38.43
2023-05-18T11:16:21.590Z,37.10
2023-05-18T11:18:53.095Z,37.40
2023-05-18T11:21:33.626Z,36.60
2023-05-18T11:24:23.767Z,36.82
2023-05-18T11:26:58.685Z,37.33
2023-05-18T11:29:40.597Z,37.20
2023-05-18T11:32:30.342Z,35.73
2023-05-18T11:34:59.462Z,36.13
2023-05-18T11:37:45.161Z,35.98
2023-05-18T11:40:34.259Z,34.86
2023-05-18T11:43:04.096Z,35.84
2023-05-18T11:45:35.217Z,35.53
2023-05-18T11:48:07.570Z,33.89
2023-05-18T11:50:37.674Z,35.65
2023-05-18T11:53:08.253Z,34.70
2023-05-18T11:55:42.303Z,35.23
2023-05-18T11:58:14.048Z,34.45
2023-05-18T12:00:44.045Z,35.64
2023-05-18T12:03:14.728Z,35.11
2023-05-18T12:05:46.564Z,33.91
2023-05-18T12:08:19.312Z,33.00
2023-05-18T12:10:50.516Z,34.13
2023-05-18T12:13:21.337Z,34.68
2023-05-18T12:15:53.026Z,34.35
2023-05-18T12:18:22.855Z,34.35
2023-05-18T12:20:53.974Z,34.04
2023-05-18T12:23:28.428Z,34.18
2023-05-18T12:25:58.808Z,34.18
2023-05-18T12:28:30.097Z,33.75
2023-05-18T12:31:01.670Z,34.09
2023-05-18T12:33:33.071Z,33.97
2023-05-18T12:36:02.606Z,34.22
2023-05-18T12:38:32.755Z,33.64
2023-05-18T12:41:02.582Z,33.43
2023-05-18T12:43:36.072Z,33.13
2023-05-18T12:46:07.274Z,33.08
2023-05-18T12:48:39.422Z,31.92
2023-05-18T12:51:12.345Z,32.11
2023-05-18T12:53:45.173Z,32.74
2023-05-18T12:56:14.950Z,33.95
2023-05-18T12:58:56.511Z,32.51
2023-05-18T13:01:27.034Z,32.51
2023-05-18T13:03:58.629Z,33.32
2023-05-18T13:06:28.537Z,33.20
2023-05-18T13:08:58.392Z,32.39
2023-05-18T13:11:28.260Z,33.24
2023-05-18T13:14:10.555Z,32.83
2023-05-18T13:16:42.924Z,32.75
2023-05-18T13:19:14.507Z,33.23
2023-05-18T13:21:44.444Z,33.24
2023-05-18T13:24:14.653Z,31.92
2023-05-18T13:26:44.506Z,31.80
2023-05-18T13:29:14.641Z,30.41
2023-05-18T13:31:44.513Z,30.97
2023-05-18T13:34:14.389Z,32.42
2023-05-18T13:36:44.223Z,32.42
2023-05-18T13:39:14.071Z,31.81
2023-05-18T13:41:43.903Z,31.25
2023-05-18T13:44:15.364Z,31.54
2023-05-18T13:46:45.674Z,30.94
2023-05-18T13:49:15.529Z,30.94
2023-05-18T13:51:45.663Z,30.81
2023-05-18T13:54:15.559Z,32.26
2023-05-18T13:56:45.471Z,31.05
2023-05-18T13:59:16.288Z,31.56
2023-05-18T14:01:47.583Z,31.56
2023-05-18T14:04:17.163Z,30.68
2023-05-18T14:06:47.067Z,30.49
2023-05-18T14:09:16.975Z,30.60
2023-05-18T14:11:46.823Z,31.16
2023-05-18T14:14:16.897Z,31.48
2023-05-18T14:16:47.000Z,32.00
2023-05-18T14:19:16.911Z,31.41
2023-05-18T14:21:46.813Z,31.07
2023-05-18T14:24:16.700Z,31.85
2023-05-18T14:26:46.595Z,31.07
2023-05-18T14:29:16.448Z,31.02
2023-05-18T14:31:46.352Z,31.02
2023-05-18T14:34:16.196Z,31.85
2023-05-18T14:36:46.279Z,31.36
2023-05-18T14:39:16.123Z,31.35
2023-05-18T14:41:46.112Z,31.35
2023-05-18T14:44:16.252Z,32.61
2023-05-18T14:46:46.261Z,32.51
2023-05-18T14:49:15.922Z,32.66
2023-05-18T14:51:46.158Z,32.00
2023-05-18T14:54:16.049Z,32.42
2023-05-18T14:56:45.965Z,32.13
2023-05-18T14:59:15.799Z,32.13
2023-05-18T15:01:45.728Z,31.43
2023-05-18T15:04:15.435Z,32.36
2023-05-18T15:06:45.338Z,33.06
2023-05-18T15:09:15.364Z,32.16
2023-05-18T15:11:45.549Z,31.97
2023-05-18T15:14:15.334Z,31.87
2023-05-18T15:16:45.235Z,31.31
2023-05-18T15:19:15.214Z,32.34
2023-05-18T15:21:45.062Z,31.79
2023-05-18T15:24:15.027Z,30.30
2023-05-18T15:26:45.107Z,31.67
2023-05-18T15:29:14.975Z,30.95
2023-05-18T15:31:45.546Z,31.38
2023-05-18T15:34:15.509Z,31.22
2023-05-18T15:36:45.114Z,30.74
2023-05-18T15:39:15.031Z,31.36
2023-05-18T15:41:44.885Z,31.36
2023-05-18T15:44:14.409Z,31.27
2023-05-18T15:46:44.698Z,31.01
2023-05-18T15:49:14.300Z,30.81
2023-05-18T15:51:44.211Z,30.29
2023-05-18T15:54:13.884Z,29.37
2023-05-18T15:56:44.283Z,30.44
2023-05-18T15:59:14.152Z,30.60
2023-05-18T16:01:44.104Z,29.87
2023-05-18T16:04:14.078Z,30.29
2023-05-18T16:06:44.371Z,30.29
2023-05-18T16:09:14.211Z,32.20
2023-05-18T16:11:44.068Z,31.68
2023-05-18T16:14:14.100Z,31.62
2023-05-18T16:16:43.716Z,31.46
2023-05-18T16:19:13.605Z,31.11
2023-05-18T16:21:43.490Z,31.61
2023-05-18T16:24:13.039Z,32.87
2023-05-18T16:26:42.924Z,32.75
2023-05-18T16:29:12.772Z,33.27
2023-05-18T16:31:42.740Z,32.64
2023-05-18T16:34:12.591Z,31.68
2023-05-18T16:36:42.155Z,32.61
2023-05-18T16:39:11.988Z,32.98
2023-05-18T16:41:41.826Z,33.34
2023-05-18T16:44:12.978Z,32.41
2023-05-18T16:46:42.833Z,32.73
2023-05-18T16:49:12.737Z,32.76
2023-05-18T16:51:42.713Z,32.76
2023-05-18T16:54:12.989Z,32.23
2023-05-18T16:56:42.819Z,32.27
2023-05-18T16:59:12.668Z,31.47
2023-05-18T17:01:42.565Z,32.44
2023-05-18T17:04:14.368Z,32.45
2023-05-18T17:06:44.468Z,33.39
2023-05-18T17:09:16.275Z,33.39
2023-05-18T17:11:46.109Z,33.09
2023-05-18T17:14:16.130Z,33.18
2023-05-18T17:16:45.954Z,32.30
2023-05-18T17:19:16.161Z,32.30
2023-05-18T17:21:46.122Z,32.45
2023-05-18T17:24:16.020Z,33.59
2023-05-18T17:26:45.933Z,33.46
2023-05-18T17:29:17.898Z,34.40
2023-05-18T17:31:47.310Z,34.40
2023-05-18T17:34:17.071Z,34.01
2023-05-18T17:36:47.663Z,33.70
2023-05-18T17:39:18.026Z,33.35
2023-05-18T17:41:47.844Z,34.61
2023-05-18T17:44:18.059Z,34.69
2023-05-18T17:46:48.971Z,34.62
2023-05-18T17:49:18.917Z,33.60
2023-05-18T17:51:48.840Z,34.72
2023-05-18T17:54:18.781Z,34.45
2023-05-18T17:56:48.640Z,35.71
2023-05-18T17:59:18.474Z,35.53
2023-05-18T18:01:48.654Z,36.35
2023-05-18T18:04:18.640Z,37.03
2023-05-18T18:06:48.666Z,37.56
2023-05-18T18:09:18.802Z,37.70
2023-05-18T18:11:48.911Z,37.70
2023-05-18T18:14:19.044Z,37.85
2023-05-18T18:16:49.095Z,38.24
2023-05-18T18:19:18.987Z,38.81
2023-05-18T18:21:48.892Z,38.00
2023-05-18T18:24:19.043Z,38.11
2023-05-18T18:26:51.085Z,38.92
2023-05-18T18:29:21.290Z,38.92
2023-05-18T18:31:51.135Z,38.82
2023-05-18T18:34:20.675Z,39.21
2023-05-18T18:36:50.594Z,39.66
2023-05-18T18:39:20.501Z,39.85
2023-05-18T18:41:51.018Z,39.46
2023-05-18T18:44:21.133Z,39.99
2023-05-18T18:46:51.152Z,40.04
2023-05-18T18:49:21.225Z,40.50
2023-05-18T18:51:53.039Z,40.65
2023-05-18T18:54:23.389Z,40.85
2023-05-18T18:56:54.218Z,40.97
2023-05-18T18:59:24.352Z,41.23
2023-05-18T19:01:54.239Z,41.24
2023-05-18T19:04:23.944Z,40.80
2023-05-18T19:06:56.621Z,41.15
2023-05-18T19:11:58.033Z,41.18
2023-05-18T19:14:28.099Z,41.46
2023-05-18T19:16:57.930Z,41.46
2023-05-18T19:19:27.874Z,42.77
2023-05-18T19:21:57.780Z,42.77
2023-05-18T19:24:27.603Z,42.20
2023-05-18T19:26:57.459Z,42.34
2023-05-18T19:29:27.580Z,42.39
2023-05-18T19:31:58.149Z,42.86
2023-05-18T19:34:27.747Z,43.09
2023-05-18T19:36:57.660Z,43.48
2023-05-18T19:39:27.502Z,43.48
2023-05-18T19:41:57.334Z,43.66
2023-05-18T19:44:27.556Z,43.94
2023-05-18T19:46:57.414Z,44.01
2023-05-18T19:49:27.415Z,44.56
2023-05-18T19:51:57.294Z,43.88
2023-05-18T19:54:27.448Z,44.31
2023-05-18T19:56:57.280Z,44.78
2023-05-18T19:59:27.133Z,45.26
2023-05-18T20:02:00.368Z,45.17
2023-05-18T20:04:30.345Z,45.38
2023-05-18T20:07:00.808Z,45.48
2023-05-18T20:09:31.090Z,46.08
2023-05-18T20:12:01.010Z,45.89
2023-05-18T20:14:30.787Z,46.04
2023-05-18T20:17:00.943Z,46.78
2023-05-18T20:19:31.189Z,46.65
2023-05-18T20:22:01.107Z,46.52
2023-05-18T20:24:31.098Z,46.71
2023-05-18T20:27:01.570Z,46.98
2023-05-18T20:29:31.406Z,46.84
2023-05-18T20:32:01.617Z,47.53
2023-05-18T20:34:31.776Z,46.95
2023-05-18T20:37:01.701Z,46.95
2023-05-18T20:39:31.691Z,47.94
2023-05-18T20:42:03.039Z,47.45
2023-05-18T20:44:32.710Z,47.97
2023-05-18T20:47:02.554Z,47.87
2023-05-18T20:49:32.554Z,48.04
2023-05-18T20:52:02.388Z,48.08
2023-05-18T20:54:32.528Z,48.87
2023-05-18T20:57:03.852Z,48.87
2023-05-18T20:59:34.528Z,48.87
2023-05-18T21:02:04.988Z,49.17
2023-05-18T21:04:35.236Z,49.20
2023-05-18T21:07:05.525Z,49.21
2023-05-18T21:09:35.723Z,49.46
2023-05-18T21:12:06.457Z,48.89
2023-05-18T21:14:36.608Z,49.26
2023-05-18T21:17:06.841Z,49.36
2023-05-18T21:19:36.691Z,50.06
2023-05-18T21:22:06.604Z,49.59
2023-05-18T21:24:36.759Z,50.25
2023-05-18T21:27:07.024Z,51.11
2023-05-18T21:29:37.189Z,51.21
2023-05-18T21:32:07.017Z,51.21
2023-05-18T21:34:37.237Z,50.93
2023-05-18T21:37:08.132Z,51.13
2023-05-18T21:39:37.993Z,51.39
2023-05-18T21:42:08.006Z,51.27
2023-05-18T21:44:38.126Z,52.22
2023-05-18T21:47:08.141Z,52.22
2023-05-18T21:49:38.336Z,51.99
2023-05-18T21:52:08.260Z,51.97
2023-05-18T21:54:38.860Z,53.20
2023-05-18T21:57:08.794Z,52.94
2023-05-18T21:59:38.616Z,52.87
2023-05-18T22:02:08.479Z,53.49
2023-05-18T22:04:38.776Z,53.63
2023-05-18T22:07:09.303Z,54.31
2023-05-18T22:09:39.450Z,54.28
2023-05-18T22:12:09.356Z,53.64
2023-05-18T22:14:38.953Z,54.36
2023-05-18T22:17:08.855Z,54.20
2023-05-18T22:19:38.747Z,54.20
2023-05-18T22:22:13.780Z,54.63
2023-05-18T22:24:41.728Z,54.81
2023-05-18T22:27:11.928Z,55.02
2023-05-18T22:29:42.077Z,54.74
2023-05-18T22:32:13.287Z,55.74
2023-05-18T22:34:43.103Z,55.79
2023-05-18T22:37:12.941Z,56.58
2023-05-18T22:39:43.678Z,56.18
2023-05-18T22:42:14.670Z,56.85
2023-05-18T22:44:44.650Z,56.98
2023-05-18T22:47:16.289Z,57.53
2023-05-18T22:49:46.611Z,57.68
2023-05-18T22:52:21.207Z,58.06
2023-05-18T22:54:51.407Z,58.72
2023-05-18T22:57:21.300Z,58.87
2023-05-18T22:59:51.473Z,59.21
2023-05-18T23:02:21.322Z,59.12
2023-05-18T23:04:51.493Z,59.71
2023-05-18T23:07:23.263Z,59.90
2023-05-18T23:09:53.679Z,59.81
2023-05-18T23:12:23.646Z,60.47
2023-05-18T23:14:55.132Z,60.47
2023-05-18T23:17:26.452Z,60.93
2023-05-18T23:19:58.480Z,60.51
2023-05-18T23:22:28.038Z,60.98
2023-05-18T23:24:57.865Z,61.88
2023-05-18T23:27:27.711Z,61.92
2023-05-18T23:29:57.888Z,62.09
2023-05-18T23:32:28.217Z,63.28
2023-05-18T23:34:59.528Z,63.37
2023-05-18T23:37:31.875Z,62.87
2023-05-18T23:40:03.626Z,62.52
2023-05-18T23:42:34.053Z,63.25
2023-05-18T23:45:04.651Z,63.87
2023-05-18T23:47:34.819Z,64.68
2023-05-18T23:50:06.171Z,64.42
2023-05-18T23:52:37.125Z,64.08
2023-05-18T23:55:09.348Z,64.26
2023-05-18T23:57:39.423Z,64.74
